Terminal Aerodrome Forecast
Issued by NWS

Current Version | Previous Version | Text Only | Print | Product List | Glossary On
Versions: 1 2 3 4 5 6 7 8 9 10 11 12 13 14 15 16 17 18 19 20
000
FTUS45 KABQ 291700 RRA
TAFROW
TAF
KROW 291759Z 2918/3018 VRB05KT 5SM -RA BKN100
     FM291930 15007KT P6SM SCT080
     FM300000 18010KT P6SM VCSH SCT060 BKN100
     FM300300 21008KT P6SM SCT150
     FM300600 VRB05KT P6SM -RA BKN050
     FM301000 VRB05KT P6SM SCT150=

USA.gov is the U.S. government's official web portal to all federal, state and local government web resources and services.